Time;durP1;ratioP1;P1;durP2;ratioP2;P2;SDS_P1;SDS_P2;PMS_P1;PMS_P2;Temp;Humidity;BMP_temperature;BMP_pressure;BME280_temperature;BME280_humidity;BME280_pressure;Samples;Min_cycle;Max_cycle;Signal;HPM_P1;HPM_P2
2023/01/11 00:01:11;;;;;;;;;;;;;;;;;;5095757;28;20310;-68
2023/01/11 00:03:37;;;;;;;;;;;;;;;;;;5095662;28;20283;-66
2023/01/11 00:06:03;;;;;;;;;;;;;;;;;;5095242;28;19919;-66
2023/01/11 00:08:29;;;;;;;;;;;;;;;;;;5095827;28;19931;-67
2023/01/11 00:10:55;;;;;;;;;;;;;;;;;;5095642;28;19908;-68
2023/01/11 00:13:21;;;;;;;;;;;;;;;;;;5093864;28;19908;-67
2023/01/11 00:15:47;;;;;;;;;;;;;;;;;;5095438;28;19962;-68
2023/01/11 00:18:13;;;;;;;;;;;;;;;;;;5094092;28;20372;-67
2023/01/11 00:20:39;;;;;;;;;;;;;;;;;;5095041;28;20364;-67
2023/01/11 00:23:05;;;;;;;;;;;;;;;;;;5095353;28;20306;-67
2023/01/11 00:25:31;;;;;;;;;;;;;;;;;;5095200;28;19916;-67
2023/01/11 00:27:57;;;;;;;;;;;;;;;;;;5094402;28;19909;-68
2023/01/11 00:30:23;;;;;;;;;;;;;;;;;;5093482;28;19977;-67
2023/01/11 00:32:49;;;;;;;;;;;;;;;;;;5093736;28;19955;-67
2023/01/11 00:35:15;;;;;;;;;;;;;;;;;;5094795;28;19934;-67
2023/01/11 00:37:41;;;;;;;;;;;;;;;;;;5095077;28;19916;-67
2023/01/11 00:40:06;;;;;;;;;;;;;;;;;;5093774;28;19947;-68
2023/01/11 00:48:04;;;;;;;;;;;;;;;;;;5094487;28;20287;-67
2023/01/11 00:50:30;;;;;;;;;;;;;;;;;;5094774;28;19908;-67
2023/01/11 00:52:56;;;;;;;;;;;;;;;;;;5094789;28;20399;-67
2023/01/11 00:55:22;;;;;;;;;;;;;;;;;;5094297;28;20269;-67
2023/01/11 00:57:48;;;;;;;;;;;;;;;;;;5094648;28;19962;-67
2023/01/11 01:00:14;;;;;;;;;;;;;;;;;;5093337;28;19920;-66
2023/01/11 01:02:40;;;;;;;;;;;;;;;;;;5094537;28;20322;-66
2023/01/11 01:05:05;;;;;;;;;;;;;;;;;;5094691;28;19924;-66
2023/01/11 01:07:31;;;;;;;;;;;;;;;;;;5093154;28;19909;-67
2023/01/11 01:09:57;;;;;;;;;;;;;;;;;;5094085;28;19923;-66
2023/01/11 01:15:08;;;;;;;;;;;;;;;;;;5094428;28;20280;-66
2023/01/11 01:17:34;;;;;;;;;;;;;;;;;;5093897;28;19912;-67
2023/01/11 01:20:00;;;;;;;;;;;;;;;;;;5094365;28;19990;-67
2023/01/11 01:22:26;;;;;;;;;;;;;;;;;;5092927;28;20368;-67
2023/01/11 01:24:52;;;;;;;;;;;;;;;;;;5093729;28;19913;-67
2023/01/11 01:27:18;;;;;;;;;;;;;;;;;;5094151;28;19929;-67
2023/01/11 01:29:44;;;;;;;;;;;;;;;;;;5094189;28;19912;-67
2023/01/11 01:32:10;;;;;;;;;;;;;;;;;;5093836;28;20261;-67
2023/01/11 01:34:36;;;;;;;;;;;;;;;;;;5092819;28;19908;-67
2023/01/11 01:37:02;;;;;;;;;;;;;;;;;;5092789;28;19908;-67
2023/01/11 01:39:28;;;;;;;;;;;;;;;;;;5093474;28;19909;-67
2023/01/11 01:41:54;;;;;;;;;;;;;;;;;;5094280;28;19962;-67
2023/01/11 01:44:20;;;;;;;;;;;;;;;;;;5093279;28;19924;-67
2023/01/11 01:46:46;;;;;;;;;;;;;;;;;;5093950;28;19915;-66
2023/01/11 01:49:12;;;;;;;;;;;;;;;;;;5094087;28;19908;-66
2023/01/11 01:51:38;;;;;;;;;;;;;;;;;;5092152;28;20006;-66
2023/01/11 01:54:04;;;;;;;;;;;;;;;;;;5093875;28;19912;-66
2023/01/11 01:56:30;;;;;;;;;;;;;;;;;;5092483;28;19915;-67
2023/01/11 01:58:56;;;;;;;;;;;;;;;;;;5093484;28;19908;-67
2023/01/11 02:04:06;;;;;;;;;;;;;;;;;;5093707;28;19915;-66
2023/01/11 02:06:32;;;;;;;;;;;;;;;;;;5093361;28;19908;-67
2023/01/11 02:08:58;;;;;;;;;;;;;;;;;;5093739;28;19908;-67
2023/01/11 02:11:30;;;;;;;;;;;;;;;;;;5093779;28;19908;-67
2023/01/11 02:13:56;;;;;;;;;;;;;;;;;;5093285;28;19909;-67
2023/01/11 02:16:22;;;;;;;;;;;;;;;;;;5093719;28;19923;-67
2023/01/11 02:18:48;;;;;;;;;;;;;;;;;;5093675;28;19908;-67
2023/01/11 02:21:14;;;;;;;;;;;;;;;;;;5093365;28;19919;-67
2023/01/11 02:23:40;;;;;;;;;;;;;;;;;;5093878;28;19916;-67
2023/01/11 02:26:06;;;;;;;;;;;;;;;;;;5093526;28;19926;-67
2023/01/11 02:28:31;;;;;;;;;;;;;;;;;;5093190;28;19954;-67
2023/01/11 02:30:57;;;;;;;;;;;;;;;;;;5092260;28;20007;-66
2023/01/11 02:33:23;;;;;;;;;;;;;;;;;;5093244;28;19912;-66
2023/01/11 02:35:49;;;;;;;;;;;;;;;;;;5093526;28;19908;-66
2023/01/11 02:38:15;;;;;;;;;;;;;;;;;;5093445;28;20276;-66
2023/01/11 02:40:41;;;;;;;;;;;;;;;;;;5091736;28;19980;-66
2023/01/11 02:45:52;;;;;;;;;;;;;;;;;;5093339;28;19982;-66
2023/01/11 02:48:18;;;;;;;;;;;;;;;;;;5091704;28;19951;-66
2023/01/11 02:50:43;;;;;;;;;;;;;;;;;;5093377;28;19912;-66
2023/01/11 02:53:09;;;;;;;;;;;;;;;;;;5096134;28;19908;-67
2023/01/11 02:55:35;;;;;;;;;;;;;;;;;;5096603;28;19994;-66
2023/01/11 02:58:01;;;;;;;;;;;;;;;;;;5097014;28;19912;-66
2023/01/11 03:00:27;;;;;;;;;;;;;;;;;;5095648;28;19916;-67
2023/01/11 03:02:53;;;;;;;;;;;;;;;;;;5095093;28;20003;-67
2023/01/11 03:05:19;;;;;;;;;;;;;;;;;;5095565;28;19961;-67
2023/01/11 03:07:45;;;;;;;;;;;;;;;;;;5096771;28;19908;-67
2023/01/11 03:10:11;;;;;;;;;;;;;;;;;;5096297;28;19930;-67
2023/01/11 03:12:53;;;;;;;;;;;;;;;;;;5096867;28;19908;-67
2023/01/11 03:15:19;;;;;;;;;;;;;;;;;;5096733;28;19915;-67
2023/01/11 03:17:45;;;;;;;;;;;;;;;;;;5094920;28;19912;-67
2023/01/11 03:20:11;;;;;;;;;;;;;;;;;;5096590;28;19908;-67
2023/01/11 03:22:37;;;;;;;;;;;;;;;;;;5095092;28;20368;-67
2023/01/11 03:25:03;;;;;;;;;;;;;;;;;;5095109;28;20387;-68
2023/01/11 03:27:29;;;;;;;;;;;;;;;;;;5095113;28;20271;-67
2023/01/11 03:29:55;;;;;;;;;;;;;;;;;;5096007;28;20310;-67
2023/01/11 03:32:21;;;;;;;;;;;;;;;;;;5096322;28;19909;-66
2023/01/11 03:34:47;;;;;;;;;;;;;;;;;;5096327;28;19908;-67
2023/01/11 03:37:13;;;;;;;;;;;;;;;;;;5095856;28;19908;-67
2023/01/11 03:39:39;;;;;;;;;;;;;;;;;;5094897;28;19908;-67
2023/01/11 03:42:04;;;;;;;;;;;;;;;;;;5096354;28;19908;-67
2023/01/11 03:44:32;;;;;;;;;;;;;;;;;;5094141;28;20006;-67
2023/01/11 03:46:58;;;;;;;;;;;;;;;;;;5094817;28;19939;-67
2023/01/11 03:49:25;;;;;;;;;;;;;;;;;;5096002;28;19908;-67
2023/01/11 03:51:51;;;;;;;;;;;;;;;;;;5095530;28;19909;-66
2023/01/11 03:54:17;;;;;;;;;;;;;;;;;;5095866;28;19938;-67
2023/01/11 03:56:43;;;;;;;;;;;;;;;;;;5095847;28;19908;-67
2023/01/11 03:59:09;;;;;;;;;;;;;;;;;;5094069;28;19915;-67
2023/01/11 04:01:35;;;;;;;;;;;;;;;;;;5094502;28;19994;-67
2023/01/11 04:04:01;;;;;;;;;;;;;;;;;;5094301;28;19908;-67
2023/01/11 04:06:26;;;;;;;;;;;;;;;;;;5095212;28;19939;-67
2023/01/11 04:08:52;;;;;;;;;;;;;;;;;;5095612;28;19908;-67
2023/01/11 04:11:18;;;;;;;;;;;;;;;;;;5095558;28;19915;-67
2023/01/11 04:13:44;;;;;;;;;;;;;;;;;;5095086;28;19908;-67
2023/01/11 04:16:10;;;;;;;;;;;;;;;;;;5095456;28;19914;-67
2023/01/11 04:18:36;;;;;;;;;;;;;;;;;;5095446;28;19908;-67
2023/01/11 04:21:02;;;;;;;;;;;;;;;;;;5095024;28;19916;-67
2023/01/11 04:23:28;;;;;;;;;;;;;;;;;;5094116;28;19999;-67
2023/01/11 04:25:54;;;;;;;;;;;;;;;;;;5095251;28;20261;-67
2023/01/11 04:28:20;;;;;;;;;;;;;;;;;;5095534;28;19908;-67
2023/01/11 04:30:46;;;;;;;;;;;;;;;;;;5095498;28;19953;-67
2023/01/11 04:33:13;;;;;;;;;;;;;;;;;;5095029;28;19908;-67
2023/01/11 04:35:39;;;;;;;;;;;;;;;;;;5093807;28;19908;-67
2023/01/11 04:38:05;;;;;;;;;;;;;;;;;;5093765;28;19915;-66
2023/01/11 04:40:31;;;;;;;;;;;;;;;;;;5093409;28;19908;-67
2023/01/11 04:43:00;;;;;;;;;;;;;;;;;;5094899;28;19991;-67
2023/01/11 04:45:26;;;;;;;;;;;;;;;;;;5094666;28;19966;-67
2023/01/11 04:47:53;;;;;;;;;;;;;;;;;;5094444;28;20380;-67
2023/01/11 04:50:18;;;;;;;;;;;;;;;;;;5094902;28;19931;-67
2023/01/11 04:52:44;;;;;;;;;;;;;;;;;;5094798;28;19908;-67
2023/01/11 04:55:10;;;;;;;;;;;;;;;;;;5093045;28;20391;-67
2023/01/11 04:57:36;;;;;;;;;;;;;;;;;;5094696;28;20368;-67
2023/01/11 05:00:06;;;;;;;;;;;;;;;;;;5093700;28;20245;-67
2023/01/11 05:02:32;;;;;;;;;;;;;;;;;;5093065;28;19981;-67
2023/01/11 05:04:58;;;;;;;;;;;;;;;;;;5094731;28;19916;-67
2023/01/11 05:07:24;;;;;;;;;;;;;;;;;;5094594;28;19980;-67
2023/01/11 05:09:50;;;;;;;;;;;;;;;;;;5094128;28;19974;-66
2023/01/11 05:12:16;;;;;;;;;;;;;;;;;;5094488;28;19908;-66
2023/01/11 05:14:42;;;;;;;;;;;;;;;;;;5094117;28;19909;-66
2023/01/11 05:17:08;;;;;;;;;;;;;;;;;;5092671;28;19947;-67
2023/01/11 05:19:33;;;;;;;;;;;;;;;;;;5093149;28;19919;-68
2023/01/11 05:21:59;;;;;;;;;;;;;;;;;;5093162;28;19915;-69
2023/01/11 05:24:25;;;;;;;;;;;;;;;;;;5093863;28;19912;-68
2023/01/11 05:26:52;;;;;;;;;;;;;;;;;;5094642;28;19912;-68
2023/01/11 05:29:19;;;;;;;;;;;;;;;;;;5093002;28;19951;-69
2023/01/11 05:31:45;;;;;;;;;;;;;;;;;;5092921;28;20324;-69
2023/01/11 05:34:11;;;;;;;;;;;;;;;;;;5094466;28;19970;-67
2023/01/11 05:36:37;;;;;;;;;;;;;;;;;;5094031;28;19916;-69
2023/01/11 05:39:03;;;;;;;;;;;;;;;;;;5094713;28;19912;-68
2023/01/11 05:41:29;;;;;;;;;;;;;;;;;;5094151;28;20020;-69
2023/01/11 05:46:40;;;;;;;;;;;;;;;;;;5094070;28;19966;-68
2023/01/11 05:49:06;;;;;;;;;;;;;;;;;;5093780;28;19912;-67
2023/01/11 05:51:32;;;;;;;;;;;;;;;;;;5093469;28;20015;-66
2023/01/11 05:53:58;;;;;;;;;;;;;;;;;;5094282;28;19908;-67
2023/01/11 05:56:24;;;;;;;;;;;;;;;;;;5092692;28;19911;-67
2023/01/11 05:58:50;;;;;;;;;;;;;;;;;;5093477;28;19948;-67
2023/01/11 06:01:15;;;;;;;;;;;;;;;;;;5093978;28;19908;-67
2023/01/11 06:03:41;;;;;;;;;;;;;;;;;;5093838;28;20406;-66
2023/01/11 06:06:07;;;;;;;;;;;;;;;;;;5093394;28;20408;-67
2023/01/11 06:08:33;;;;;;;;;;;;;;;;;;5093857;28;19912;-66
2023/01/11 06:10:59;;;;;;;;;;;;;;;;;;5093774;28;19908;-68
2023/01/11 06:13:25;;;;;;;;;;;;;;;;;;5093409;28;19915;-67
2023/01/11 06:15:51;;;;;;;;;;;;;;;;;;5093724;28;20279;-67
2023/01/11 06:18:17;;;;;;;;;;;;;;;;;;5092335;28;20368;-67
2023/01/11 06:20:43;;;;;;;;;;;;;;;;;;5093503;28;20323;-68
2023/01/11 06:23:09;;;;;;;;;;;;;;;;;;5093758;28;19908;-67
2023/01/11 06:25:36;;;;;;;;;;;;;;;;;;5093413;28;19918;-66
2023/01/11 06:28:03;;;;;;;;;;;;;;;;;;5096267;28;19912;-66
2023/01/11 06:30:29;;;;;;;;;;;;;;;;;;5097487;28;20268;-65
2023/01/11 06:33:04;;;;;;;;;;;;;;;;;;5095909;28;19908;-66
2023/01/11 06:35:30;;;;;;;;;;;;;;;;;;5097146;28;19977;-66
2023/01/11 06:37:55;;;;;;;;;;;;;;;;;;5097452;28;20356;-67
2023/01/11 06:40:21;;;;;;;;;;;;;;;;;;5095612;28;20386;-67
2023/01/11 06:42:47;;;;;;;;;;;;;;;;;;5095665;28;20403;-66
2023/01/11 06:45:13;;;;;;;;;;;;;;;;;;5095404;28;19924;-66
2023/01/11 06:47:39;;;;;;;;;;;;;;;;;;5084594;28;19913;-66
2023/01/11 06:50:05;;;;;;;;;;;;;;;;;;5094022;28;19935;-67
2023/01/11 06:52:31;;;;;;;;;;;;;;;;;;5094148;28;19908;-66
2023/01/11 06:54:57;;;;;;;;;;;;;;;;;;5088916;28;19957;-66
2023/01/11 06:57:23;;;;;;;;;;;;;;;;;;5093571;28;19912;-67
2023/01/11 06:59:49;;;;;;;;;;;;;;;;;;5094616;28;20368;-67
2023/01/11 07:02:15;;;;;;;;;;;;;;;;;;5093758;28;19908;-66
2023/01/11 07:04:42;;;;;;;;;;;;;;;;;;5090445;28;19989;-66
2023/01/11 07:07:09;;;;;;;;;;;;;;;;;;5095515;28;19908;-66
2023/01/11 07:09:35;;;;;;;;;;;;;;;;;;5095432;28;19960;-66
2023/01/11 07:12:01;;;;;;;;;;;;;;;;;;5091652;28;20016;-67
2023/01/11 07:14:27;;;;;;;;;;;;;;;;;;5094057;28;20018;-68
2023/01/11 07:16:56;;;;;;;;;;;;;;;;;;5092435;28;20285;-67
2023/01/11 07:19:27;;;;;;;;;;;;;;;;;;5093219;28;20430;-67
2023/01/11 07:21:54;;;;;;;;;;;;;;;;;;5092149;28;19912;-68
2023/01/11 07:24:21;;;;;;;;;;;;;;;;;;5092985;28;19919;-68
2023/01/11 07:26:51;;;;;;;;;;;;;;;;;;5094305;28;19919;-68
2023/01/11 07:29:17;;;;;;;;;;;;;;;;;;5093867;28;19931;-67
2023/01/11 07:31:43;;;;;;;;;;;;;;;;;;5091583;28;19977;-66
2023/01/11 07:34:09;;;;;;;;;;;;;;;;;;5090535;28;19915;-67
2023/01/11 07:36:38;;;;;;;;;;;;;;;;;;5091143;28;19995;-66
2023/01/11 07:39:04;;;;;;;;;;;;;;;;;;5093192;28;19965;-66
2023/01/11 07:44:14;;;;;;;;;;;;;;;;;;5089382;28;19927;-66
2023/01/11 07:46:40;;;;;;;;;;;;;;;;;;5089842;28;20300;-67
2023/01/11 07:49:06;;;;;;;;;;;;;;;;;;5104110;28;20302;-67
2023/01/11 07:51:32;;;;;;;;;;;;;;;;;;5097603;28;19908;-65
2023/01/11 07:54:01;;;;;;;;;;;;;;;;;;5095120;28;19947;-65
2023/01/11 07:56:27;;;;;;;;;;;;;;;;;;5107813;28;19911;-65
2023/01/11 07:58:53;;;;;;;;;;;;;;;;;;5103038;28;19953;-65
2023/01/11 08:01:19;;;;;;;;;;;;;;;;;;5112648;28;19916;-66
2023/01/11 08:03:45;;;;;;;;;;;;;;;;;;5114152;28;19929;-66
2023/01/11 08:06:13;;;;;;;;;;;;;;;;;;5091375;28;19920;-65
2023/01/11 08:08:39;;;;;;;;;;;;;;;;;;5092306;28;19961;-68
2023/01/11 08:16:34;;;;;;;;;;;;;;;;;;5090120;28;19965;-67
2023/01/11 08:19:00;;;;;;;;;;;;;;;;;;5082141;28;20439;-69
2023/01/11 08:21:26;;;;;;;;;;;;;;;;;;5092249;28;19919;-67
2023/01/11 08:23:52;;;;;;;;;;;;;;;;;;5091902;28;19909;-66
2023/01/11 08:26:18;;;;;;;;;;;;;;;;;;5092930;28;20375;-66
2023/01/11 08:28:44;;;;;;;;;;;;;;;;;;5078119;28;19920;-66
2023/01/11 08:31:10;;;;;;;;;;;;;;;;;;5073889;28;19909;-67
2023/01/11 08:33:36;;;;;;;;;;;;;;;;;;5078076;28;19938;-66
2023/01/11 08:36:02;;;;;;;;;;;;;;;;;;5073215;28;20368;-66
2023/01/11 08:38:28;;;;;;;;;;;;;;;;;;5081505;28;19912;-66
2023/01/11 08:40:54;;;;;;;;;;;;;;;;;;5074588;28;20257;-67
2023/01/11 08:43:20;;;;;;;;;;;;;;;;;;5072402;28;19908;-68
2023/01/11 08:45:46;;;;;;;;;;;;;;;;;;5088356;28;19963;-67
2023/01/11 08:48:12;;;;;;;;;;;;;;;;;;5091642;28;19915;-68
2023/01/11 08:50:38;;;;;;;;;;;;;;;;;;5089045;28;19912;-68
2023/01/11 08:53:04;;;;;;;;;;;;;;;;;;5089148;28;19946;-67
2023/01/11 08:55:30;;;;;;;;;;;;;;;;;;5090359;28;19912;-67
2023/01/11 08:57:55;;;;;;;;;;;;;;;;;;5090959;28;19923;-69
2023/01/11 09:00:21;;;;;;;;;;;;;;;;;;5088813;28;19999;-66
2023/01/11 09:02:47;;;;;;;;;;;;;;;;;;5081545;28;19912;-67
2023/01/11 09:05:13;;;;;;;;;;;;;;;;;;5086701;28;19923;-67
2023/01/11 09:07:39;;;;;;;;;;;;;;;;;;5083786;28;19923;-67
2023/01/11 09:10:05;;;;;;;;;;;;;;;;;;5084641;28;19999;-68
2023/01/11 09:12:31;;;;;;;;;;;;;;;;;;5092856;28;19912;-69
2023/01/11 09:14:57;;;;;;;;;;;;;;;;;;5092781;28;20348;-66
2023/01/11 09:17:23;;;;;;;;;;;;;;;;;;5110944;28;20322;-67
2023/01/11 09:19:49;;;;;;;;;;;;;;;;;;5106811;28;20399;-67
2023/01/11 09:22:15;;;;;;;;;;;;;;;;;;5108577;28;19919;-69
2023/01/11 09:24:41;;;;;;;;;;;;;;;;;;5089560;28;19916;-74
2023/01/11 09:27:07;;;;;;;;;;;;;;;;;;5104458;28;19947;-68
2023/01/11 09:29:33;;;;;;;;;;;;;;;;;;5069753;28;20115;-68
2023/01/11 09:31:59;;;;;;;;;;;;;;;;;;5070842;28;19961;-70
2023/01/11 09:34:26;;;;;;;;;;;;;;;;;;5117016;27;19909;-71
2023/01/11 09:36:52;;;;;;;;;;;;;;;;;;5084311;28;20015;-70
2023/01/11 09:39:21;;;;;;;;;;;;;;;;;;5086479;28;20464;-70
2023/01/11 09:41:49;;;;;;;;;;;;;;;;;;5084664;28;19912;-70
2023/01/11 09:44:17;;;;;;;;;;;;;;;;;;5085777;28;19920;-68
2023/01/11 09:46:43;;;;;;;;;;;;;;;;;;5086421;28;19947;-67
2023/01/11 09:49:10;;;;;;;;;;;;;;;;;;5073434;28;19908;-70
2023/01/11 09:51:38;;;;;;;;;;;;;;;;;;5068361;28;19935;-67
2023/01/11 09:54:08;;;;;;;;;;;;;;;;;;5072862;28;19912;-67
2023/01/11 09:56:35;;;;;;;;;;;;;;;;;;5087213;28;20279;-68
2023/01/11 09:59:01;;;;;;;;;;;;;;;;;;5081371;28;19977;-68
2023/01/11 10:01:30;;;;;;;;;;;;;;;;;;5076239;28;19913;-70
2023/01/11 10:03:58;;;;;;;;;;;;;;;;;;5081823;28;19952;-66
2023/01/11 10:06:25;;;;;;;;;;;;;;;;;;5087112;28;20372;-69
2023/01/11 10:08:52;;;;;;;;;;;;;;;;;;5078131;28;20037;-68
2023/01/11 10:11:19;;;;;;;;;;;;;;;;;;5083174;28;19948;-69
2023/01/11 10:13:46;;;;;;;;;;;;;;;;;;5102094;27;20402;-69
2023/01/11 10:16:17;;;;;;;;;;;;;;;;;;5105933;28;19909;-67
2023/01/11 10:18:43;;;;;;;;;;;;;;;;;;5074497;28;19914;-67
2023/01/11 10:21:10;;;;;;;;;;;;;;;;;;5106142;28;19944;-69
2023/01/11 10:23:40;;;;;;;;;;;;;;;;;;5073266;28;19908;-69
2023/01/11 10:26:14;;;;;;;;;;;;;;;;;;5072669;28;19924;-67
2023/01/11 10:28:54;;;;;;;;;;;;;;;;;;5073473;28;20019;-69
2023/01/11 10:31:46;;;;;;;;;;;;;;;;;;5072111;28;20406;-66
2023/01/11 10:34:41;;;;;;;;;;;;;;;;;;5088922;28;19974;-69
2023/01/11 10:42:20;;;;;;;;;;;;;;;;;;5105831;28;19973;-66
2023/01/11 10:44:47;;;;;;;;;;;;;;;;;;5097356;28;19966;-67
2023/01/11 10:47:15;;;;;;;;;;;;;;;;;;5092001;28;19912;-69
2023/01/11 10:49:42;;;;;;;;;;;;;;;;;;5092218;28;19908;-66
2023/01/11 10:52:08;;;;;;;;;;;;;;;;;;5092384;28;19919;-67
2023/01/11 10:54:37;;;;;;;;;;;;;;;;;;5092151;28;20371;-67
2023/01/11 10:57:07;;;;;;;;;;;;;;;;;;5092735;28;19919;-66
2023/01/11 10:59:33;;;;;;;;;;;;;;;;;;5045106;28;20392;-66
2023/01/11 11:01:59;;;;;;;;;;;;;;;;;;5070187;28;19913;-66
2023/01/11 11:04:25;;;;;;;;;;;;;;;;;;5065117;28;19919;-67
2023/01/11 11:06:51;;;;;;;;;;;;;;;;;;5066333;28;19912;-68
2023/01/11 11:09:17;;;;;;;;;;;;;;;;;;5074529;28;19909;-66
2023/01/11 11:11:45;;;;;;;;;;;;;;;;;;5073891;28;19958;-66
2023/01/11 11:14:11;;;;;;;;;;;;;;;;;;5070801;28;19974;-66
2023/01/11 11:16:37;;;;;;;;;;;;;;;;;;5073354;28;19912;-68
2023/01/11 11:19:03;;;;;;;;;;;;;;;;;;5072329;28;19919;-71
2023/01/11 11:21:29;;;;;;;;;;;;;;;;;;5072424;28;19915;-69
2023/01/11 11:23:55;;;;;;;;;;;;;;;;;;5073539;28;19985;-67
2023/01/11 11:26:21;;;;;;;;;;;;;;;;;;5074614;28;20360;-69
2023/01/11 11:28:47;;;;;;;;;;;;;;;;;;5073823;28;20315;-69
2023/01/11 11:31:14;;;;;;;;;;;;;;;;;;5071900;28;19971;-67
2023/01/11 11:33:39;;;;;;;;;;;;;;;;;;5072012;28;20010;-66
2023/01/11 11:36:06;;;;;;;;;;;;;;;;;;5073145;28;19999;-68
2023/01/11 11:38:32;;;;;;;;;;;;;;;;;;5072555;28;19952;-70
2023/01/11 11:40:58;;;;;;;;;;;;;;;;;;5054731;28;20635;-70
2023/01/11 11:43:24;;;;;;;;;;;;;;;;;;5049655;28;20001;-69
2023/01/11 11:45:51;;;;;;;;;;;;;;;;;;5087827;28;19920;-68
2023/01/11 11:50:59;;;;;;;;;;;;;;;;;;5107319;27;20311;-69
2023/01/11 11:53:25;;;;;;;;;;;;;;;;;;5107111;28;19918;-67
2023/01/11 11:55:51;;;;;;;;;;;;;;;;;;5109305;28;19991;-68
2023/01/11 11:58:17;;;;;;;;;;;;;;;;;;5108148;28;20003;-68
2023/01/11 12:02:41;;;;;;;;;;;;;;;;;;5088956;27;19923;-69
2023/01/11 12:05:07;;;;;;;;;;;;;;;;;;5087952;28;19913;-67
2023/01/11 12:07:33;;;;;;;;;;;;;;;;;;5090298;28;19912;-68
2023/01/11 12:09:59;;;;;;;;;;;;;;;;;;5090187;28;19909;-67
2023/01/11 12:12:25;;;;;;;;;;;;;;;;;;5086795;28;20041;-67
2023/01/11 12:14:51;;;;;;;;;;;;;;;;;;5087952;28;19920;-67
2023/01/11 12:17:16;;;;;;;;;;;;;;;;;;5085823;28;19977;-68
2023/01/11 12:19:44;;;;;;;;;;;;;;;;;;5084581;28;20407;-68
2023/01/11 12:22:10;;;;;;;;;;;;;;;;;;5083748;28;20163;-68
2023/01/11 12:24:36;;;;;;;;;;;;;;;;;;5083110;28;19935;-68
2023/01/11 12:27:02;;;;;;;;;;;;;;;;;;5086562;28;19909;-69
2023/01/11 12:29:28;;;;;;;;;;;;;;;;;;5087136;28;19998;-69
2023/01/11 12:31:54;;;;;;;;;;;;;;;;;;5084654;28;19912;-69
2023/01/11 12:34:20;;;;;;;;;;;;;;;;;;5086449;28;19909;-67
2023/01/11 12:36:46;;;;;;;;;;;;;;;;;;5077700;28;19954;-68
2023/01/11 12:39:12;;;;;;;;;;;;;;;;;;5065779;28;19912;-67
2023/01/11 12:41:46;;;;;;;;;;;;;;;;;;5067991;28;19923;-65
2023/01/11 12:44:12;;;;;;;;;;;;;;;;;;5087672;28;19915;-65
2023/01/11 12:46:38;;;;;;;;;;;;;;;;;;5069281;28;19909;-66
2023/01/11 12:49:04;;;;;;;;;;;;;;;;;;5070014;28;19909;-66
2023/01/11 12:51:30;;;;;;;;;;;;;;;;;;5067844;28;19916;-66
2023/01/11 12:53:56;;;;;;;;;;;;;;;;;;5068453;28;19915;-66
2023/01/11 12:56:22;;;;;;;;;;;;;;;;;;5069981;28;19908;-67
2023/01/11 12:58:48;;;;;;;;;;;;;;;;;;5069238;28;19909;-67
2023/01/11 13:01:14;;;;;;;;;;;;;;;;;;5067140;28;19920;-67
2023/01/11 13:03:40;;;;;;;;;;;;;;;;;;5067788;28;19913;-68
2023/01/11 13:06:06;;;;;;;;;;;;;;;;;;5068433;28;19916;-67
2023/01/11 13:08:32;;;;;;;;;;;;;;;;;;5085300;28;19908;-68
2023/01/11 13:10:58;;;;;;;;;;;;;;;;;;5087475;28;19944;-69
2023/01/11 13:13:24;;;;;;;;;;;;;;;;;;5075967;28;19915;-68
2023/01/11 13:15:52;;;;;;;;;;;;;;;;;;5073937;28;19916;-70
2023/01/11 13:18:18;;;;;;;;;;;;;;;;;;5073587;28;19916;-69
2023/01/11 13:20:44;;;;;;;;;;;;;;;;;;5074299;28;20292;-70
2023/01/11 13:23:10;;;;;;;;;;;;;;;;;;5076419;28;19963;-69
2023/01/11 13:25:36;;;;;;;;;;;;;;;;;;5074865;28;19915;-69
2023/01/11 13:28:02;;;;;;;;;;;;;;;;;;5074411;28;20327;-70
2023/01/11 13:30:28;;;;;;;;;;;;;;;;;;5076234;28;19920;-70
2023/01/11 13:32:54;;;;;;;;;;;;;;;;;;5074907;28;19908;-69
2023/01/11 13:35:20;;;;;;;;;;;;;;;;;;5075768;28;19912;-67
2023/01/11 13:37:46;;;;;;;;;;;;;;;;;;5076056;28;19908;-68
2023/01/11 13:40:12;;;;;;;;;;;;;;;;;;5076218;28;19908;-68
2023/01/11 13:42:38;;;;;;;;;;;;;;;;;;5075575;28;19939;-68
2023/01/11 13:45:04;;;;;;;;;;;;;;;;;;5076039;28;19908;-69
2023/01/11 13:47:30;;;;;;;;;;;;;;;;;;5076181;28;19915;-69
2023/01/11 13:49:56;;;;;;;;;;;;;;;;;;5075690;28;19912;-69
2023/01/11 13:52:21;;;;;;;;;;;;;;;;;;5076357;28;20061;-69
2023/01/11 13:54:47;;;;;;;;;;;;;;;;;;5075833;28;19909;-70
2023/01/11 13:57:13;;;;;;;;;;;;;;;;;;5075505;28;19908;-70
2023/01/11 13:59:39;;;;;;;;;;;;;;;;;;5075775;28;19961;-70
2023/01/11 14:02:05;;;;;;;;;;;;;;;;;;5074270;28;20372;-69
2023/01/11 14:04:31;;;;;;;;;;;;;;;;;;5075370;28;20410;-71
2023/01/11 14:06:57;;;;;;;;;;;;;;;;;;5074437;28;20365;-69
2023/01/11 14:09:23;;;;;;;;;;;;;;;;;;5075605;28;20372;-69
2023/01/11 14:11:49;;;;;;;;;;;;;;;;;;5075277;28;20379;-70
2023/01/11 14:14:16;;;;;;;;;;;;;;;;;;5075711;28;19909;-71
2023/01/11 14:16:42;;;;;;;;;;;;;;;;;;5075565;28;20388;-69
2023/01/11 14:19:08;;;;;;;;;;;;;;;;;;5075572;28;19909;-70
2023/01/11 14:21:34;;;;;;;;;;;;;;;;;;5074090;28;19964;-71
2023/01/11 14:24:00;;;;;;;;;;;;;;;;;;5074309;28;20329;-70
2023/01/11 14:26:26;;;;;;;;;;;;;;;;;;5074006;28;19909;-72
2023/01/11 14:28:52;;;;;;;;;;;;;;;;;;5075419;28;19909;-71
2023/01/11 14:31:18;;;;;;;;;;;;;;;;;;5074756;28;19908;-70
2023/01/11 14:33:44;;;;;;;;;;;;;;;;;;5075109;28;19908;-70
2023/01/11 14:36:10;;;;;;;;;;;;;;;;;;5073880;28;19910;-70
2023/01/11 14:38:36;;;;;;;;;;;;;;;;;;5073311;28;19914;-70
2023/01/11 14:41:02;;;;;;;;;;;;;;;;;;5073574;28;19917;-70
2023/01/11 14:43:28;;;;;;;;;;;;;;;;;;5073695;28;19966;-70
2023/01/11 14:45:54;;;;;;;;;;;;;;;;;;5074485;28;19908;-70
2023/01/11 14:48:20;;;;;;;;;;;;;;;;;;5074940;28;20369;-70
2023/01/11 14:50:46;;;;;;;;;;;;;;;;;;5073485;28;20387;-69
2023/01/11 14:53:12;;;;;;;;;;;;;;;;;;5074390;28;20300;-69
2023/01/11 14:55:40;;;;;;;;;;;;;;;;;;5075161;28;20241;-70
2023/01/11 14:58:06;;;;;;;;;;;;;;;;;;5074627;28;19910;-70
2023/01/11 15:00:33;;;;;;;;;;;;;;;;;;5074048;28;19908;-71
2023/01/11 15:02:59;;;;;;;;;;;;;;;;;;5074856;28;20356;-71
2023/01/11 15:05:24;;;;;;;;;;;;;;;;;;5074679;28;19909;-70
2023/01/11 15:07:50;;;;;;;;;;;;;;;;;;5074146;28;19944;-69
2023/01/11 15:10:16;;;;;;;;;;;;;;;;;;5074750;28;19938;-70
2023/01/11 15:12:42;;;;;;;;;;;;;;;;;;5074421;28;19916;-70
2023/01/11 15:15:08;;;;;;;;;;;;;;;;;;5073856;28;19908;-69
2023/01/11 15:18:16;;;;;;;;;;;;;;;;;;5074326;28;19944;-70
2023/01/11 15:20:23;;;;;;;;;;;;;;;;;;5070665;28;20325;-70
2023/01/11 15:22:49;;;;;;;;;;;;;;;;;;5073040;28;19947;-70
2023/01/11 15:25:15;;;;;;;;;;;;;;;;;;5074294;28;20376;-69
2023/01/11 15:27:41;;;;;;;;;;;;;;;;;;5072376;28;20360;-69
2023/01/11 15:30:07;;;;;;;;;;;;;;;;;;5074076;28;20392;-69
2023/01/11 15:32:33;;;;;;;;;;;;;;;;;;5074021;28;19915;-69
2023/01/11 15:34:59;;;;;;;;;;;;;;;;;;5071908;28;19995;-70
2023/01/11 15:37:25;;;;;;;;;;;;;;;;;;5071898;28;19909;-69
2023/01/11 15:39:51;;;;;;;;;;;;;;;;;;5071966;28;19908;-70
2023/01/11 15:42:17;;;;;;;;;;;;;;;;;;5071547;28;20061;-70
2023/01/11 15:44:43;;;;;;;;;;;;;;;;;;5071973;28;19913;-70
2023/01/11 15:47:09;;;;;;;;;;;;;;;;;;5070595;28;19956;-70
2023/01/11 15:49:36;;;;;;;;;;;;;;;;;;5071492;28;19919;-69
2023/01/11 15:52:02;;;;;;;;;;;;;;;;;;5073609;28;19914;-69
2023/01/11 15:54:28;;;;;;;;;;;;;;;;;;5073909;28;20007;-70
2023/01/11 15:56:54;;;;;;;;;;;;;;;;;;5073583;28;19954;-69
2023/01/11 15:59:20;;;;;;;;;;;;;;;;;;5074190;28;20455;-69
2023/01/11 16:01:46;;;;;;;;;;;;;;;;;;5073524;28;20393;-69
2023/01/11 16:04:12;;;;;;;;;;;;;;;;;;5073499;28;20283;-69
2023/01/11 16:06:38;;;;;;;;;;;;;;;;;;5073747;28;19956;-70
2023/01/11 16:09:04;;;;;;;;;;;;;;;;;;5073715;28;20369;-70
2023/01/11 16:11:30;;;;;;;;;;;;;;;;;;5073501;28;19909;-70
2023/01/11 16:13:56;;;;;;;;;;;;;;;;;;5073777;28;19909;-71
2023/01/11 16:16:22;;;;;;;;;;;;;;;;;;5073498;28;20333;-70
2023/01/11 16:18:48;;;;;;;;;;;;;;;;;;5072381;28;19909;-70
2023/01/11 16:21:14;;;;;;;;;;;;;;;;;;5073602;28;20438;-70
2023/01/11 16:23:40;;;;;;;;;;;;;;;;;;5073142;28;20515;-70
2023/01/11 16:26:06;;;;;;;;;;;;;;;;;;5073535;28;19912;-69
2023/01/11 16:28:32;;;;;;;;;;;;;;;;;;5072905;28;19938;-70
2023/01/11 16:30:58;;;;;;;;;;;;;;;;;;5071877;28;19909;-70
2023/01/11 16:33:25;;;;;;;;;;;;;;;;;;5074064;28;20046;-70
2023/01/11 16:35:51;;;;;;;;;;;;;;;;;;5073590;28;20003;-70
2023/01/11 16:38:17;;;;;;;;;;;;;;;;;;5073340;28;20328;-70
2023/01/11 16:40:43;;;;;;;;;;;;;;;;;;5073460;28;20368;-70
2023/01/11 16:43:09;;;;;;;;;;;;;;;;;;5073408;28;19919;-70
2023/01/11 16:45:35;;;;;;;;;;;;;;;;;;5073022;28;20433;-70
2023/01/11 16:48:01;;;;;;;;;;;;;;;;;;5074722;28;20327;-70
2023/01/11 16:50:27;;;;;;;;;;;;;;;;;;5077163;28;20280;-70
2023/01/11 16:52:53;;;;;;;;;;;;;;;;;;5076741;28;19908;-70
2023/01/11 16:55:19;;;;;;;;;;;;;;;;;;5076997;28;20394;-70
2023/01/11 16:57:45;;;;;;;;;;;;;;;;;;5077142;28;20284;-70
2023/01/11 17:00:11;;;;;;;;;;;;;;;;;;5075196;28;19971;-70
2023/01/11 17:02:41;;;;;;;;;;;;;;;;;;5074838;28;19921;-68
2023/01/11 17:05:07;;;;;;;;;;;;;;;;;;5076707;28;19908;-68
2023/01/11 17:07:33;;;;;;;;;;;;;;;;;;5076345;28;19908;-69
2023/01/11 17:09:59;;;;;;;;;;;;;;;;;;5076750;28;19915;-69
2023/01/11 17:12:25;;;;;;;;;;;;;;;;;;5076614;28;19948;-70
2023/01/11 17:14:52;;;;;;;;;;;;;;;;;;5076192;28;19913;-69